Eads, CO (81036)

10:26 AM MST on January 25, 2015 (GMT -0700)
Kit Carson | Change Station
CLOSE
Current Station
Personal Weather Station
Location: Kit Carson, CO
Elevation: 4301 ft
Nearby Weather Stations

Elev 4301 ft 38.77 °N, 102.79 °W | Updated 4 seconds ago

Clear
Clear
50.5 °F
Feels Like 50.5 °F
N
7.0
Wind Variable Wind from NNW
Gusts 20.0 mph

Today
High -- | Low -- °F
--% Chance of Precip.
Yesterday
High -- | Low -- °F
Precip. -- in
7:01 AM 5:04 PM
Waxing Crescent, 34% visible
Pressure 30.19 in
Visibility 10.0 miles
Clouds Clear
Dew Point 29 °F
Humidity 44%
Rainfall 0.00 in
Snow Depth Not available.
UV 2 out of 12
Pollen 2.20 out of 12
Air Quality Not available.
Flu Activity Not available.
METAR KLAA 251653Z AUTO 29009KT 10SM CLR 06/M01 A3019 RMK AO2 SLP224 T00611011

More Conditions Fewer Conditions

Pressure 30.19 in
Visibility 10.0 miles
Clouds Clear
Dew Point 29 °F
Humidity 44%
Rainfall 0.00 in
Snow Depth Not available.
UV 2 out of 12
Pollen 2.20 out of 12
Air Quality Not available.
Flu Activity Not available.
METAR KLAA 251653Z AUTO 29009KT 10SM CLR 06/M01 A3019 RMK AO2 SLP224 T00611011

More Conditions Fewer Conditions

10-Day Weather Forecast

Almanac

Astronomy

Jan. 25, 2015 Rise Set
Actual Time
Civil Twilight
Nautical Twilight
Astronomical Twilight
Moon
Length of Visible Light
Length of Day
Tomorrow will be .
, % of the Moon is Illuminated

Today's Extremes

State Highs State Lows

Community

WunderPhotos

Upload Photos

1,789,997 photos uploaded!

WunderBlogs® & News

Nearby

Air Quality

  Air Quality AQ Index Pollutant
Not available.

Snow Depth

Station Depth Elevation

Earthquake Activity

City Distance Mag. Time & Date
Minimum magnitude displayed is 2.5.

Coastal Water Temperatures

Place Temperature

Nearby Weather Stations